sensor_id;sensor_type;location;lat;lon;timestamp;temperature;humidity
14769;DHT22;7476;49.404;11.152;2022-09-23T00:01:48;2.10;99.90
14769;DHT22;7476;49.404;11.152;2022-09-23T00:04:14;2.20;99.90
14769;DHT22;7476;49.404;11.152;2022-09-23T00:06:41;2.20;99.90
14769;DHT22;7476;49.404;11.152;2022-09-23T00:09:08;2.10;99.90
14769;DHT22;7476;49.404;11.152;2022-09-23T00:11:35;1.90;99.90
14769;DHT22;7476;49.404;11.152;2022-09-23T00:14:01;2.00;99.90
14769;DHT22;7476;49.404;11.152;2022-09-23T00:16:30;1.90;99.90
14769;DHT22;7476;49.404;11.152;2022-09-23T00:19:00;2.00;99.90
14769;DHT22;7476;49.404;11.152;2022-09-23T00:21:27;1.80;99.90
14769;DHT22;7476;49.404;11.152;2022-09-23T00:23:54;1.80;99.90
14769;DHT22;7476;49.404;11.152;2022-09-23T00:26:21;1.70;99.90
14769;DHT22;7476;49.404;11.152;2022-09-23T00:28:49;1.70;99.90
14769;DHT22;7476;49.404;11.152;2022-09-23T00:31:17;1.70;99.90
14769;DHT22;7476;49.404;11.152;2022-09-23T00:33:44;1.70;99.90
14769;DHT22;7476;49.404;11.152;2022-09-23T00:36:14;1.60;99.90
14769;DHT22;7476;49.404;11.152;2022-09-23T00:38:41;1.50;99.90
14769;DHT22;7476;49.404;11.152;2022-09-23T00:41:08;1.40;99.90
14769;DHT22;7476;49.404;11.152;2022-09-23T00:43:38;1.30;99.90
14769;DHT22;7476;49.404;11.152;2022-09-23T00:46:06;1.30;99.90
14769;DHT22;7476;49.404;11.152;2022-09-23T00:48:34;1.30;99.90
14769;DHT22;7476;49.404;11.152;2022-09-23T00:51:03;1.30;99.90
14769;DHT22;7476;49.404;11.152;2022-09-23T00:53:31;1.20;99.90
14769;DHT22;7476;49.404;11.152;2022-09-23T00:56:02;1.30;99.90
14769;DHT22;7476;49.404;11.152;2022-09-23T00:58:33;1.30;99.90
14769;DHT22;7476;49.404;11.152;2022-09-23T01:01:02;1.50;99.90
14769;DHT22;7476;49.404;11.152;2022-09-23T01:03:29;1.20;99.90
14769;DHT22;7476;49.404;11.152;2022-09-23T01:05:57;1.20;99.90
14769;DHT22;7476;49.404;11.152;2022-09-23T01:08:24;1.10;99.90
14769;DHT22;7476;49.404;11.152;2022-09-23T01:10:59;1.20;99.90
14769;DHT22;7476;49.404;11.152;2022-09-23T01:13:36;1.20;99.90
14769;DHT22;7476;49.404;11.152;2022-09-23T01:16:11;1.40;99.90
14769;DHT22;7476;49.404;11.152;2022-09-23T01:18:45;1.50;99.90
14769;DHT22;7476;49.404;11.152;2022-09-23T01:21:24;1.50;99.90
14769;DHT22;7476;49.404;11.152;2022-09-23T01:24:20;1.30;99.90
14769;DHT22;7476;49.404;11.152;2022-09-23T01:26:57;1.10;99.90
14769;DHT22;7476;49.404;11.152;2022-09-23T01:29:54;0.90;99.90
14769;DHT22;7476;49.404;11.152;2022-09-23T01:32:35;0.80;99.90
14769;DHT22;7476;49.404;11.152;2022-09-23T01:35:06;0.80;99.90
14769;DHT22;7476;49.404;11.152;2022-09-23T01:37:38;0.80;99.90
14769;DHT22;7476;49.404;11.152;2022-09-23T01:40:09;0.80;99.90
14769;DHT22;7476;49.404;11.152;2022-09-23T01:42:41;0.80;99.90
14769;DHT22;7476;49.404;11.152;2022-09-23T01:45:14;0.80;99.90
14769;DHT22;7476;49.404;11.152;2022-09-23T01:47:49;0.90;99.90
14769;DHT22;7476;49.404;11.152;2022-09-23T01:50:18;0.90;99.90
14769;DHT22;7476;49.404;11.152;2022-09-23T01:53:06;0.90;99.90
14769;DHT22;7476;49.404;11.152;2022-09-23T01:55:39;0.90;99.90
14769;DHT22;7476;49.404;11.152;2022-09-23T01:58:10;0.90;99.90
14769;DHT22;7476;49.404;11.152;2022-09-23T02:00:42;1.00;99.90
14769;DHT22;7476;49.404;11.152;2022-09-23T02:03:15;0.80;99.90
14769;DHT22;7476;49.404;11.152;2022-09-23T02:05:44;0.90;99.90
14769;DHT22;7476;49.404;11.152;2022-09-23T02:08:15;0.70;99.90
14769;DHT22;7476;49.404;11.152;2022-09-23T02:10:45;0.80;99.90
14769;DHT22;7476;49.404;11.152;2022-09-23T02:13:16;1.00;99.90
14769;DHT22;7476;49.404;11.152;2022-09-23T02:15:48;1.00;99.90
14769;DHT22;7476;49.404;11.152;2022-09-23T02:18:21;0.80;99.90
14769;DHT22;7476;49.404;11.152;2022-09-23T02:20:51;0.80;99.90
14769;DHT22;7476;49.404;11.152;2022-09-23T02:23:22;0.80;99.90
14769;DHT22;7476;49.404;11.152;2022-09-23T02:25:55;0.90;99.90
14769;DHT22;7476;49.404;11.152;2022-09-23T02:28:28;0.90;99.90
14769;DHT22;7476;49.404;11.152;2022-09-23T02:31:05;0.80;99.90
14769;DHT22;7476;49.404;11.152;2022-09-23T02:33:37;0.70;99.90
14769;DHT22;7476;49.404;11.152;2022-09-23T02:36:07;0.70;99.90
14769;DHT22;7476;49.404;11.152;2022-09-23T02:38:39;0.70;99.90
14769;DHT22;7476;49.404;11.152;2022-09-23T02:41:10;0.70;99.90
14769;DHT22;7476;49.404;11.152;2022-09-23T02:43:44;0.70;99.90
14769;DHT22;7476;49.404;11.152;2022-09-23T02:46:14;0.60;99.90
14769;DHT22;7476;49.404;11.152;2022-09-23T02:48:45;0.50;99.90
14769;DHT22;7476;49.404;11.152;2022-09-23T02:51:15;0.50;99.90
14769;DHT22;7476;49.404;11.152;2022-09-23T02:53:42;0.50;99.90
14769;DHT22;7476;49.404;11.152;2022-09-23T02:56:15;0.50;99.90
14769;DHT22;7476;49.404;11.152;2022-09-23T02:58:44;0.50;99.90
14769;DHT22;7476;49.404;11.152;2022-09-23T03:01:18;0.60;99.90
14769;DHT22;7476;49.404;11.152;2022-09-23T03:03:57;0.50;99.90
14769;DHT22;7476;49.404;11.152;2022-09-23T03:06:34;0.40;99.90
14769;DHT22;7476;49.404;11.152;2022-09-23T03:09:07;0.40;99.90
14769;DHT22;7476;49.404;11.152;2022-09-23T03:11:37;0.40;99.90
14769;DHT22;7476;49.404;11.152;2022-09-23T03:14:11;0.50;99.90
14769;DHT22;7476;49.404;11.152;2022-09-23T03:16:46;0.60;99.90
14769;DHT22;7476;49.404;11.152;2022-09-23T03:19:22;0.40;99.90
14769;DHT22;7476;49.404;11.152;2022-09-23T03:21:57;0.30;99.90
14769;DHT22;7476;49.404;11.152;2022-09-23T03:24:27;0.30;99.90
14769;DHT22;7476;49.404;11.152;2022-09-23T03:26:57;0.30;99.90
14769;DHT22;7476;49.404;11.152;2022-09-23T03:29:26;0.30;99.90
14769;DHT22;7476;49.404;11.152;2022-09-23T03:31:54;0.20;99.90
14769;DHT22;7476;49.404;11.152;2022-09-23T03:34:26;0.20;99.90
14769;DHT22;7476;49.404;11.152;2022-09-23T03:36:55;0.20;99.90
14769;DHT22;7476;49.404;11.152;2022-09-23T03:39:30;0.20;99.90
14769;DHT22;7476;49.404;11.152;2022-09-23T03:42:01;0.20;99.90
14769;DHT22;7476;49.404;11.152;2022-09-23T03:44:28;0.10;99.90
14769;DHT22;7476;49.404;11.152;2022-09-23T03:46:57;0.10;99.90
14769;DHT22;7476;49.404;11.152;2022-09-23T03:49:27;0.20;99.90
14769;DHT22;7476;49.404;11.152;2022-09-23T03:51:57;0.20;99.90
14769;DHT22;7476;49.404;11.152;2022-09-23T03:54:24;0.20;99.90
14769;DHT22;7476;49.404;11.152;2022-09-23T03:56:54;0.20;99.90
14769;DHT22;7476;49.404;11.152;2022-09-23T03:59:22;0.20;99.90
14769;DHT22;7476;49.404;11.152;2022-09-23T04:01:49;0.20;99.90
14769;DHT22;7476;49.404;11.152;2022-09-23T04:04:15;0.30;99.90
14769;DHT22;7476;49.404;11.152;2022-09-23T04:06:43;0.30;99.90
14769;DHT22;7476;49.404;11.152;2022-09-23T04:09:10;0.30;99.90
14769;DHT22;7476;49.404;11.152;2022-09-23T04:11:37;0.20;99.90
14769;DHT22;7476;49.404;11.152;2022-09-23T04:14:03;0.20;99.90
14769;DHT22;7476;49.404;11.152;2022-09-23T04:16:30;0.30;99.90
14769;DHT22;7476;49.404;11.152;2022-09-23T04:18:57;0.20;99.90
14769;DHT22;7476;49.404;11.152;2022-09-23T04:21:23;0.20;99.90
14769;DHT22;7476;49.404;11.152;2022-09-23T04:23:52;0.20;99.90
14769;DHT22;7476;49.404;11.152;2022-09-23T04:26:19;0.20;99.90
14769;DHT22;7476;49.404;11.152;2022-09-23T04:28:45;0.10;99.90
14769;DHT22;7476;49.404;11.152;2022-09-23T04:31:12;0.10;99.90
14769;DHT22;7476;49.404;11.152;2022-09-23T04:33:39;0.00;99.90
14769;DHT22;7476;49.404;11.152;2022-09-23T04:36:06;0.00;99.90
14769;DHT22;7476;49.404;11.152;2022-09-23T04:38:33;0.00;99.90
14769;DHT22;7476;49.404;11.152;2022-09-23T04:41:01;0.00;99.90
14769;DHT22;7476;49.404;11.152;2022-09-23T04:43:28;-0.10;99.90
14769;DHT22;7476;49.404;11.152;2022-09-23T04:45:58;0.00;99.90
14769;DHT22;7476;49.404;11.152;2022-09-23T04:48:25;0.00;99.90
14769;DHT22;7476;49.404;11.152;2022-09-23T04:50:52;-0.10;99.90
14769;DHT22;7476;49.404;11.152;2022-09-23T04:53:19;0.30;99.90
14769;DHT22;7476;49.404;11.152;2022-09-23T04:55:46;0.50;99.90
14769;DHT22;7476;49.404;11.152;2022-09-23T04:58:18;0.60;99.90
14769;DHT22;7476;49.404;11.152;2022-09-23T05:00:47;0.70;99.90
14769;DHT22;7476;49.404;11.152;2022-09-23T05:03:14;0.90;99.90
14769;DHT22;7476;49.404;11.152;2022-09-23T05:05:40;0.80;99.90
14769;DHT22;7476;49.404;11.152;2022-09-23T05:08:08;0.90;99.90
14769;DHT22;7476;49.404;11.152;2022-09-23T05:10:34;0.90;99.90
14769;DHT22;7476;49.404;11.152;2022-09-23T05:13:01;0.80;99.90
14769;DHT22;7476;49.404;11.152;2022-09-23T05:15:29;0.50;99.90
14769;DHT22;7476;49.404;11.152;2022-09-23T05:17:56;0.70;99.90
14769;DHT22;7476;49.404;11.152;2022-09-23T05:20:23;0.80;99.90
14769;DHT22;7476;49.404;11.152;2022-09-23T05:22:50;0.80;99.90
14769;DHT22;7476;49.404;11.152;2022-09-23T05:25:20;1.00;99.90
14769;DHT22;7476;49.404;11.152;2022-09-23T05:27:48;0.90;99.90
14769;DHT22;7476;49.404;11.152;2022-09-23T05:30:14;0.80;99.90
14769;DHT22;7476;49.404;11.152;2022-09-23T05:32:42;0.80;99.90
14769;DHT22;7476;49.404;11.152;2022-09-23T05:35:10;0.70;99.90
14769;DHT22;7476;49.404;11.152;2022-09-23T05:37:36;0.70;99.90
14769;DHT22;7476;49.404;11.152;2022-09-23T05:40:04;0.70;99.90
14769;DHT22;7476;49.404;11.152;2022-09-23T05:42:30;0.70;99.90
14769;DHT22;7476;49.404;11.152;2022-09-23T05:44:57;1.00;99.90
14769;DHT22;7476;49.404;11.152;2022-09-23T05:47:24;1.10;99.90
14769;DHT22;7476;49.404;11.152;2022-09-23T05:49:52;1.10;99.90
14769;DHT22;7476;49.404;11.152;2022-09-23T05:52:19;1.20;99.90
14769;DHT22;7476;49.404;11.152;2022-09-23T05:54:46;1.40;99.90
14769;DHT22;7476;49.404;11.152;2022-09-23T05:57:12;2.00;99.90
14769;DHT22;7476;49.404;11.152;2022-09-23T05:59:39;2.80;99.90
14769;DHT22;7476;49.404;11.152;2022-09-23T06:02:08;3.60;99.90
14769;DHT22;7476;49.404;11.152;2022-09-23T06:04:34;4.30;99.90
14769;DHT22;7476;49.404;11.152;2022-09-23T06:07:02;4.60;99.90
14769;DHT22;7476;49.404;11.152;2022-09-23T06:09:29;5.00;99.90
14769;DHT22;7476;49.404;11.152;2022-09-23T06:11:56;5.40;99.90
14769;DHT22;7476;49.404;11.152;2022-09-23T06:14:22;5.50;99.90
14769;DHT22;7476;49.404;11.152;2022-09-23T06:16:49;5.80;99.90
14769;DHT22;7476;49.404;11.152;2022-09-23T06:19:15;6.00;99.90
14769;DHT22;7476;49.404;11.152;2022-09-23T06:21:42;6.30;99.90
14769;DHT22;7476;49.404;11.152;2022-09-23T06:24:10;6.30;99.90
14769;DHT22;7476;49.404;11.152;2022-09-23T06:26:36;6.60;99.90
14769;DHT22;7476;49.404;11.152;2022-09-23T06:29:07;6.80;99.90
14769;DHT22;7476;49.404;11.152;2022-09-23T06:31:36;6.60;99.90
14769;DHT22;7476;49.404;11.152;2022-09-23T06:34:03;6.30;99.90
14769;DHT22;7476;49.404;11.152;2022-09-23T06:36:29;6.10;99.90
14769;DHT22;7476;49.404;11.152;2022-09-23T06:38:56;6.00;99.90
14769;DHT22;7476;49.404;11.152;2022-09-23T06:41:25;6.40;99.90
14769;DHT22;7476;49.404;11.152;2022-09-23T06:43:52;7.10;99.90
14769;DHT22;7476;49.404;11.152;2022-09-23T06:46:19;7.60;99.90
14769;DHT22;7476;49.404;11.152;2022-09-23T06:48:45;8.40;99.90
14769;DHT22;7476;49.404;11.152;2022-09-23T06:51:13;8.80;99.90
14769;DHT22;7476;49.404;11.152;2022-09-23T06:53:45;8.90;99.90
14769;DHT22;7476;49.404;11.152;2022-09-23T06:56:11;9.40;99.90
14769;DHT22;7476;49.404;11.152;2022-09-23T06:58:40;9.90;99.90
14769;DHT22;7476;49.404;11.152;2022-09-23T07:01:09;10.30;99.90
14769;DHT22;7476;49.404;11.152;2022-09-23T07:03:36;10.20;99.90
14769;DHT22;7476;49.404;11.152;2022-09-23T07:06:04;10.50;99.90
14769;DHT22;7476;49.404;11.152;2022-09-23T07:08:32;10.90;99.90
14769;DHT22;7476;49.404;11.152;2022-09-23T07:11:00;11.00;99.90
14769;DHT22;7476;49.404;11.152;2022-09-23T07:13:28;11.00;99.90
14769;DHT22;7476;49.404;11.152;2022-09-23T07:15:58;10.90;99.90
14769;DHT22;7476;49.404;11.152;2022-09-23T07:18:28;10.70;99.90
14769;DHT22;7476;49.404;11.152;2022-09-23T07:20:54;10.80;99.90
14769;DHT22;7476;49.404;11.152;2022-09-23T07:23:23;11.00;99.90
14769;DHT22;7476;49.404;11.152;2022-09-23T07:25:50;11.30;99.90
14769;DHT22;7476;49.404;11.152;2022-09-23T07:28:17;11.90;99.90
14769;DHT22;7476;49.404;11.152;2022-09-23T07:30:44;12.20;99.90
14769;DHT22;7476;49.404;11.152;2022-09-23T07:33:13;12.70;99.90
14769;DHT22;7476;49.404;11.152;2022-09-23T07:35:40;13.60;99.90
14769;DHT22;7476;49.404;11.152;2022-09-23T07:38:07;13.40;99.90
14769;DHT22;7476;49.404;11.152;2022-09-23T07:40:35;13.50;99.90
14769;DHT22;7476;49.404;11.152;2022-09-23T07:43:02;14.00;99.90
14769;DHT22;7476;49.404;11.152;2022-09-23T07:45:29;14.10;99.90
14769;DHT22;7476;49.404;11.152;2022-09-23T07:47:58;14.50;99.90
14769;DHT22;7476;49.404;11.152;2022-09-23T07:50:26;14.80;99.90
14769;DHT22;7476;49.404;11.152;2022-09-23T07:52:56;14.50;99.90
14769;DHT22;7476;49.404;11.152;2022-09-23T07:55:23;14.90;99.90
14769;DHT22;7476;49.404;11.152;2022-09-23T07:57:49;14.90;99.90
14769;DHT22;7476;49.404;11.152;2022-09-23T08:00:16;14.90;99.90
14769;DHT22;7476;49.404;11.152;2022-09-23T08:02:43;15.00;99.90
14769;DHT22;7476;49.404;11.152;2022-09-23T08:05:10;15.20;99.90
14769;DHT22;7476;49.404;11.152;2022-09-23T08:07:38;15.60;99.90
14769;DHT22;7476;49.404;11.152;2022-09-23T08:10:06;15.40;99.90
14769;DHT22;7476;49.404;11.152;2022-09-23T08:12:32;15.70;99.90
14769;DHT22;7476;49.404;11.152;2022-09-23T08:14:59;15.70;99.90
14769;DHT22;7476;49.404;11.152;2022-09-23T08:17:26;15.40;99.90
14769;DHT22;7476;49.404;11.152;2022-09-23T08:19:53;15.10;99.90
14769;DHT22;7476;49.404;11.152;2022-09-23T08:22:20;15.60;99.90
14769;DHT22;7476;49.404;11.152;2022-09-23T08:24:47;15.60;99.90
14769;DHT22;7476;49.404;11.152;2022-09-23T08:27:14;16.10;99.90
14769;DHT22;7476;49.404;11.152;2022-09-23T08:29:41;15.70;99.90
14769;DHT22;7476;49.404;11.152;2022-09-23T08:32:07;16.40;99.90
14769;DHT22;7476;49.404;11.152;2022-09-23T08:34:34;16.90;99.90
14769;DHT22;7476;49.404;11.152;2022-09-23T08:37:01;16.80;99.90
14769;DHT22;7476;49.404;11.152;2022-09-23T08:39:27;16.90;99.90
14769;DHT22;7476;49.404;11.152;2022-09-23T08:42:07;17.10;99.90
14769;DHT22;7476;49.404;11.152;2022-09-23T08:44:44;17.50;99.90
14769;DHT22;7476;49.404;11.152;2022-09-23T08:47:16;17.60;99.90
14769;DHT22;7476;49.404;11.152;2022-09-23T08:49:50;17.50;99.90
14769;DHT22;7476;49.404;11.152;2022-09-23T08:52:23;17.90;99.90
14769;DHT22;7476;49.404;11.152;2022-09-23T08:54:53;17.80;99.90
14769;DHT22;7476;49.404;11.152;2022-09-23T08:57:29;17.40;99.90
14769;DHT22;7476;49.404;11.152;2022-09-23T08:59:59;17.30;99.90
14769;DHT22;7476;49.404;11.152;2022-09-23T09:02:26;17.30;99.90
14769;DHT22;7476;49.404;11.152;2022-09-23T09:04:54;17.50;99.90
14769;DHT22;7476;49.404;11.152;2022-09-23T09:07:23;17.80;99.90
14769;DHT22;7476;49.404;11.152;2022-09-23T09:09:57;18.20;99.90
14769;DHT22;7476;49.404;11.152;2022-09-23T09:12:31;17.70;99.90
14769;DHT22;7476;49.404;11.152;2022-09-23T09:15:01;17.60;99.90
14769;DHT22;7476;49.404;11.152;2022-09-23T09:17:34;17.40;99.90
14769;DHT22;7476;49.404;11.152;2022-09-23T09:20:15;17.60;99.90
14769;DHT22;7476;49.404;11.152;2022-09-23T09:22:51;18.10;99.90
14769;DHT22;7476;49.404;11.152;2022-09-23T09:25:31;17.80;99.90
14769;DHT22;7476;49.404;11.152;2022-09-23T09:28:01;18.30;99.90
14769;DHT22;7476;49.404;11.152;2022-09-23T09:30:29;18.40;99.90
14769;DHT22;7476;49.404;11.152;2022-09-23T09:33:00;18.10;99.90
14769;DHT22;7476;49.404;11.152;2022-09-23T09:35:32;18.50;99.90
14769;DHT22;7476;49.404;11.152;2022-09-23T09:38:02;18.50;99.90
14769;DHT22;7476;49.404;11.152;2022-09-23T09:40:30;18.70;99.90
14769;DHT22;7476;49.404;11.152;2022-09-23T09:42:57;18.30;99.90
14769;DHT22;7476;49.404;11.152;2022-09-23T09:45:29;18.20;99.90
14769;DHT22;7476;49.404;11.152;2022-09-23T09:48:05;18.10;99.90
14769;DHT22;7476;49.404;11.152;2022-09-23T09:50:44;18.00;99.90
14769;DHT22;7476;49.404;11.152;2022-09-23T09:53:22;17.80;99.90
14769;DHT22;7476;49.404;11.152;2022-09-23T09:56:02;17.80;99.90
14769;DHT22;7476;49.404;11.152;2022-09-23T09:58:34;17.80;99.90
14769;DHT22;7476;49.404;11.152;2022-09-23T10:01:07;17.50;99.90
14769;DHT22;7476;49.404;11.152;2022-09-23T10:03:38;17.60;99.90
14769;DHT22;7476;49.404;11.152;2022-09-23T10:06:18;17.80;99.90
14769;DHT22;7476;49.404;11.152;2022-09-23T10:09:07;18.30;99.90
14769;DHT22;7476;49.404;11.152;2022-09-23T10:11:34;18.80;99.90
14769;DHT22;7476;49.404;11.152;2022-09-23T10:14:04;18.90;99.90
14769;DHT22;7476;49.404;11.152;2022-09-23T10:16:33;18.90;99.90
14769;DHT22;7476;49.404;11.152;2022-09-23T10:19:01;19.00;99.90
14769;DHT22;7476;49.404;11.152;2022-09-23T10:21:32;18.80;99.90
14769;DHT22;7476;49.404;11.152;2022-09-23T10:24:01;18.60;99.90
14769;DHT22;7476;49.404;11.152;2022-09-23T10:26:30;18.90;99.90
14769;DHT22;7476;49.404;11.152;2022-09-23T10:29:00;19.50;99.90
14769;DHT22;7476;49.404;11.152;2022-09-23T10:31:30;19.00;99.60
14769;DHT22;7476;49.404;11.152;2022-09-23T10:33:59;18.80;99.90
14769;DHT22;7476;49.404;11.152;2022-09-23T10:36:28;19.10;99.70
14769;DHT22;7476;49.404;11.152;2022-09-23T10:38:57;19.80;99.90
14769;DHT22;7476;49.404;11.152;2022-09-23T10:41:51;19.30;99.10
14769;DHT22;7476;49.404;11.152;2022-09-23T10:44:49;19.80;98.30
14769;DHT22;7476;49.404;11.152;2022-09-23T10:47:39;20.00;95.60
14769;DHT22;7476;49.404;11.152;2022-09-23T10:50:22;19.90;97.60
14769;DHT22;7476;49.404;11.152;2022-09-23T10:52:58;20.30;94.90
14769;DHT22;7476;49.404;11.152;2022-09-23T10:55:56;20.40;97.00
14769;DHT22;7476;49.404;11.152;2022-09-23T10:58:42;20.90;95.40
14769;DHT22;7476;49.404;11.152;2022-09-23T11:01:18;21.70;93.20
14769;DHT22;7476;49.404;11.152;2022-09-23T11:04:19;22.00;92.90
14769;DHT22;7476;49.404;11.152;2022-09-23T11:07:10;21.60;92.80
14769;DHT22;7476;49.404;11.152;2022-09-23T11:09:50;22.10;91.70
14769;DHT22;7476;49.404;11.152;2022-09-23T11:12:25;21.70;92.90
14769;DHT22;7476;49.404;11.152;2022-09-23T11:15:08;21.50;92.70
14769;DHT22;7476;49.404;11.152;2022-09-23T11:20:50;21.70;91.40
14769;DHT22;7476;49.404;11.152;2022-09-23T11:23:53;22.00;91.00
14769;DHT22;7476;49.404;11.152;2022-09-23T11:26:34;22.30;91.30
14769;DHT22;7476;49.404;11.152;2022-09-23T11:29:36;22.00;90.20
14769;DHT22;7476;49.404;11.152;2022-09-23T11:32:23;22.80;89.50
14769;DHT22;7476;49.404;11.152;2022-09-23T11:35:11;22.80;90.20
14769;DHT22;7476;49.404;11.152;2022-09-23T11:37:43;23.00;90.20
14769;DHT22;7476;49.404;11.152;2022-09-23T11:40:16;22.70;87.80
14769;DHT22;7476;49.404;11.152;2022-09-23T11:42:51;22.60;90.50
14769;DHT22;7476;49.404;11.152;2022-09-23T11:45:21;23.30;87.00
14769;DHT22;7476;49.404;11.152;2022-09-23T11:47:54;23.50;87.10
14769;DHT22;7476;49.404;11.152;2022-09-23T11:50:27;23.10;85.50
14769;DHT22;7476;49.404;11.152;2022-09-23T11:52:59;22.80;89.30
14769;DHT22;7476;49.404;11.152;2022-09-23T11:55:30;22.60;90.70
14769;DHT22;7476;49.404;11.152;2022-09-23T11:58:03;23.10;90.70
14769;DHT22;7476;49.404;11.152;2022-09-23T12:00:36;23.20;88.20
14769;DHT22;7476;49.404;11.152;2022-09-23T12:03:07;23.40;88.40
14769;DHT22;7476;49.404;11.152;2022-09-23T12:05:40;22.50;88.90
14769;DHT22;7476;49.404;11.152;2022-09-23T12:08:14;22.30;90.70
14769;DHT22;7476;49.404;11.152;2022-09-23T12:10:52;21.90;90.90
14769;DHT22;7476;49.404;11.152;2022-09-23T12:13:29;21.80;92.60
14769;DHT22;7476;49.404;11.152;2022-09-23T12:16:24;23.10;90.80
14769;DHT22;7476;49.404;11.152;2022-09-23T12:19:02;23.00;90.20
14769;DHT22;7476;49.404;11.152;2022-09-23T12:21:56;23.60;85.90
14769;DHT22;7476;49.404;11.152;2022-09-23T12:24:45;23.10;88.50
14769;DHT22;7476;49.404;11.152;2022-09-23T12:27:21;22.90;85.10
14769;DHT22;7476;49.404;11.152;2022-09-23T12:29:54;23.00;84.80
14769;DHT22;7476;49.404;11.152;2022-09-23T12:32:22;22.80;83.50
14769;DHT22;7476;49.404;11.152;2022-09-23T12:34:50;22.80;83.60
14769;DHT22;7476;49.404;11.152;2022-09-23T12:37:24;22.70;85.30
14769;DHT22;7476;49.404;11.152;2022-09-23T12:39:52;22.70;85.00
14769;DHT22;7476;49.404;11.152;2022-09-23T12:42:21;23.00;85.10
14769;DHT22;7476;49.404;11.152;2022-09-23T12:44:49;23.50;84.90
14769;DHT22;7476;49.404;11.152;2022-09-23T12:47:36;24.30;81.70
14769;DHT22;7476;49.404;11.152;2022-09-23T12:56:21;25.70;78.10
14769;DHT22;7476;49.404;11.152;2022-09-23T12:59:01;25.40;77.60
14769;DHT22;7476;49.404;11.152;2022-09-23T13:01:36;26.10;76.80
14769;DHT22;7476;49.404;11.152;2022-09-23T13:04:03;25.80;77.00
14769;DHT22;7476;49.404;11.152;2022-09-23T13:06:55;25.90;75.30
14769;DHT22;7476;49.404;11.152;2022-09-23T13:09:26;26.20;76.40
14769;DHT22;7476;49.404;11.152;2022-09-23T13:11:56;25.60;78.70
14769;DHT22;7476;49.404;11.152;2022-09-23T13:14:27;24.80;78.70
14769;DHT22;7476;49.404;11.152;2022-09-23T13:16:57;24.90;75.20
14769;DHT22;7476;49.404;11.152;2022-09-23T13:19:44;24.60;76.50
14769;DHT22;7476;49.404;11.152;2022-09-23T13:22:12;24.90;77.10
14769;DHT22;7476;49.404;11.152;2022-09-23T13:24:43;25.50;72.40
14769;DHT22;7476;49.404;11.152;2022-09-23T13:27:19;26.20;73.10
14769;DHT22;7476;49.404;11.152;2022-09-23T13:29:50;26.10;69.60
14769;DHT22;7476;49.404;11.152;2022-09-23T13:32:25;26.30;69.40
14769;DHT22;7476;49.404;11.152;2022-09-23T13:34:55;24.50;73.90
14769;DHT22;7476;49.404;11.152;2022-09-23T13:37:27;25.00;74.00
14769;DHT22;7476;49.404;11.152;2022-09-23T13:40:06;26.40;71.70
14769;DHT22;7476;49.404;11.152;2022-09-23T13:42:34;26.90;71.30
14769;DHT22;7476;49.404;11.152;2022-09-23T13:45:12;27.30;69.50
14769;DHT22;7476;49.404;11.152;2022-09-23T13:47:42;26.60;71.60
14769;DHT22;7476;49.404;11.152;2022-09-23T13:50:15;26.10;69.60
14769;DHT22;7476;49.404;11.152;2022-09-23T13:52:42;26.70;70.20
14769;DHT22;7476;49.404;11.152;2022-09-23T13:55:23;27.80;68.20
14769;DHT22;7476;49.404;11.152;2022-09-23T13:57:57;27.80;69.50
14769;DHT22;7476;49.404;11.152;2022-09-23T14:00:26;27.10;67.80
14769;DHT22;7476;49.404;11.152;2022-09-23T14:02:57;27.30;67.40
14769;DHT22;7476;49.404;11.152;2022-09-23T14:05:25;29.10;66.00
14769;DHT22;7476;49.404;11.152;2022-09-23T14:07:53;29.20;63.40
14769;DHT22;7476;49.404;11.152;2022-09-23T14:10:22;28.00;65.90
14769;DHT22;7476;49.404;11.152;2022-09-23T14:12:51;27.30;66.60
14769;DHT22;7476;49.404;11.152;2022-09-23T14:15:19;27.90;67.20
14769;DHT22;7476;49.404;11.152;2022-09-23T14:17:50;28.50;68.10
14769;DHT22;7476;49.404;11.152;2022-09-23T14:20:20;29.10;63.40
14769;DHT22;7476;49.404;11.152;2022-09-23T14:22:47;28.70;65.80
14769;DHT22;7476;49.404;11.152;2022-09-23T14:25:15;27.80;66.00
14769;DHT22;7476;49.404;11.152;2022-09-23T14:27:43;27.10;69.70
14769;DHT22;7476;49.404;11.152;2022-09-23T14:30:13;27.40;69.10
14769;DHT22;7476;49.404;11.152;2022-09-23T14:32:40;28.70;65.20
14769;DHT22;7476;49.404;11.152;2022-09-23T14:35:18;28.80;64.20
14769;DHT22;7476;49.404;11.152;2022-09-23T14:37:47;29.10;63.80
14769;DHT22;7476;49.404;11.152;2022-09-23T14:40:34;29.30;64.00
14769;DHT22;7476;49.404;11.152;2022-09-23T14:43:05;28.30;63.90
14769;DHT22;7476;49.404;11.152;2022-09-23T14:45:34;28.00;65.10
14769;DHT22;7476;49.404;11.152;2022-09-23T14:48:05;27.70;66.50
14769;DHT22;7476;49.404;11.152;2022-09-23T14:50:34;29.50;63.80
14769;DHT22;7476;49.404;11.152;2022-09-23T14:53:33;29.90;61.20
14769;DHT22;7476;49.404;11.152;2022-09-23T14:56:15;29.00;62.80
14769;DHT22;7476;49.404;11.152;2022-09-23T14:58:45;28.70;62.80
14769;DHT22;7476;49.404;11.152;2022-09-23T15:01:35;28.20;63.40
14769;DHT22;7476;49.404;11.152;2022-09-23T15:04:14;27.60;65.00
14769;DHT22;7476;49.404;11.152;2022-09-23T15:06:46;27.20;66.00
14769;DHT22;7476;49.404;11.152;2022-09-23T15:09:19;26.60;65.60
14769;DHT22;7476;49.404;11.152;2022-09-23T15:11:50;26.50;66.60
14769;DHT22;7476;49.404;11.152;2022-09-23T15:14:17;26.40;66.60
14769;DHT22;7476;49.404;11.152;2022-09-23T15:16:45;26.40;66.60
14769;DHT22;7476;49.404;11.152;2022-09-23T15:19:16;24.90;70.10
14769;DHT22;7476;49.404;11.152;2022-09-23T15:21:46;25.70;70.00
14769;DHT22;7476;49.404;11.152;2022-09-23T15:24:39;26.20;68.70
14769;DHT22;7476;49.404;11.152;2022-09-23T15:27:26;26.40;68.30
14769;DHT22;7476;49.404;11.152;2022-09-23T15:29:53;27.00;66.10
14769;DHT22;7476;49.404;11.152;2022-09-23T15:32:23;26.70;65.70
14769;DHT22;7476;49.404;11.152;2022-09-23T15:34:50;26.10;66.80
14769;DHT22;7476;49.404;11.152;2022-09-23T15:37:18;25.60;70.90
14769;DHT22;7476;49.404;11.152;2022-09-23T15:39:45;25.70;68.40
14769;DHT22;7476;49.404;11.152;2022-09-23T15:42:13;25.90;68.90
14769;DHT22;7476;49.404;11.152;2022-09-23T15:44:40;25.40;70.10
14769;DHT22;7476;49.404;11.152;2022-09-23T15:47:12;25.20;70.40
14769;DHT22;7476;49.404;11.152;2022-09-23T15:49:43;25.90;70.70
14769;DHT22;7476;49.404;11.152;2022-09-23T15:52:12;26.70;68.60
14769;DHT22;7476;49.404;11.152;2022-09-23T15:54:42;27.30;67.00
14769;DHT22;7476;49.404;11.152;2022-09-23T15:57:10;26.60;67.60
14769;DHT22;7476;49.404;11.152;2022-09-23T15:59:37;26.10;69.20
14769;DHT22;7476;49.404;11.152;2022-09-23T16:02:10;25.40;68.10
14769;DHT22;7476;49.404;11.152;2022-09-23T16:04:39;25.40;70.90
14769;DHT22;7476;49.404;11.152;2022-09-23T16:07:09;24.50;72.40
14769;DHT22;7476;49.404;11.152;2022-09-23T16:09:42;23.20;75.10
14769;DHT22;7476;49.404;11.152;2022-09-23T16:12:09;21.90;79.10
14769;DHT22;7476;49.404;11.152;2022-09-23T16:14:36;21.00;81.70